Glasco, KS

8:07 AM CDT on July 23, 2014 (GMT -0500)
Simpson KS (KKSBELOI5) Elev 1342 ft | 39.39 °N, 97.94 °W | Change Station

Current weather conditions updated 13 minutes ago

Partly Cloudy
Partly Cloudy
68.7 °F
Feels Like 68.7 °F
N
4.2
Wind Variable Wind from ENE

Today is forecast to be Much Cooler than yesterday.

Today
High -- | Low -- °F
--% Chance of Precip.
Yesterday
High -- | Low -- °F
Precip. -- in
6:23 AM 8:51 PM
Waning Crescent, 10% visible
Pressure 30.20 in
Visibility 9.0 miles
Clouds Few 11000 ft
Dew Point -23 °F
Humidity 2%
Rainfall 0.09 in
Snow Depth Not available.
UV 1 out of 12
Pollen 6.00 out of 12
Air Quality Not available.
Flu Activity Not available.
SPECI KCNK 231303Z AUTO 09007KT 9SM VCTS -RA FEW110 19/18 A3020 RMK AO2 LTG DSNT E-S TSE1257 P0000 T01940183

More Conditions Fewer Conditions

Pressure 30.20 in
Visibility 9.0 miles
Clouds Few 11000 ft
Dew Point -23 °F
Humidity 2%
Rainfall 0.09 in
Snow Depth Not available.
UV 1 out of 12
Pollen 6.00 out of 12
Air Quality Not available.
Flu Activity Not available.
SPECI KCNK 231303Z AUTO 09007KT 9SM VCTS -RA FEW110 19/18 A3020 RMK AO2 LTG DSNT E-S TSE1257 P0000 T01940183

More Conditions Fewer Conditions

10-Day Weather Forecast

Almanac

Astronomy

Jul. 23, 2014 Rise Set
Actual Time 6:23 AM CDT 8:51 PM CDT
Civil Twilight 5:52 AM CDT 9:22 PM CDT
Nautical Twilight 5:14 AM CDT 10:00 PM CDT
Astronomical Twilight 4:32 AM CDT 10:42 PM CDT
Moon 3:43 AM CDT 6:21 PM CDT
Length of Visible Light 15h 29m
Length of Day
14h 28m
Tomorrow will be 1m 40s shorter.
Waning Crescent, 10% of the Moon is Illuminated
Today
Waning Crescent
Jul 26
New
Aug 3
First Quarter
Aug 10
Full
Aug 17
Last Quarter

Today's Extremes

State Highs State Lows

Community

WunderPhotos

Upload Photos

1,736,584 photos uploaded!

Nearby

Snow Depth

Station Depth Elevation
No new snow has been reported.

Earthquake Activity

City Distance Mag. Time & Date
No recent earthquake activity has been reported nearby.
Minimum magnitude displayed is 2.5.

Coastal Water Temperatures

Place Temperature
No Stations Reporting

Nearby Weather Stations

Station Location Temp. Heat Index Dew Point Humidity Wind Precip. Elev Updated Type
Simpson KS, Beloit, KS 68.7 °F - -23 °F 2% ENE  at  4.2 mph - / hr 1342 ft 7:54 AM CDT Normal
Chancy's Pond, Delphos, KS 67.9 °F - 65 °F 91% ENE  at  2.0 mph 0.00 in / hr 1375 ft 8:07 AM CDT Rapid Fire
Joe's Place, Concordia, KS 67.0 °F - 64 °F 90% ENE  at  0.0 mph 0.06 in / hr 1440 ft 8:07 AM CDT Rapid Fire
Center Township, BELOIT, KS 70.1 °F - 66 °F 88% NE  at  10.0 mph 0.00 in / hr 1504 ft 8:07 AM CDT Normal
ERC Field, Minneapolis, KS 70.7 °F 71 °F 64 °F 80% East  at  12.5 mph - / hr 1309 ft 8:00 AM CDT Normal

Show More Stations Show Fewer Stations